Williamsburg, Virginia
Current Conditions -  °F | °C
As of 12:35 AM on Wednesday 26 Nov 2014 (Local Time) from KJGG Reporting Station
Overcast Overcast  
Wind Chill: 52°   Ceiling: 6000
Heat Index: 52°   Visibility: 7mi
Dew Point: 48°   Wind: 3mph
Humidity: 88%   Direction: 60°ENE
Pressure: 30.09"   Gusts: NA
Location:  37.28°N, 76.71°W
Report Text: KJGG 260535Z AUTO 06003KT 7SM OVC060 11/09 A3009 RMK AO1
Loading
Personal Weather Stations






























Interactive Weather Map New forecast layout! Learn more

10-Day Weather Forecast

Advertisements
Track Severe Weather on mobile